Time;durP1;ratioP1;P1;durP2;ratioP2;P2;SDS_P1;SDS_P2;PMS_P1;PMS_P2;Temp;Humidity;BMP_temperature;BMP_pressure;BME280_temperature;BME280_humidity;BME280_pressure;Samples;Min_cycle;Max_cycle;Signal;HPM_P1;HPM_P2
2022/09/16 00:02:53;;;;;;;4.43;1.83;;;16.00;99.90;;;;;;10397728;28;20299;-73
2022/09/16 00:07:55;;;;;;;7.30;2.00;;;16.00;99.90;;;;;;10389874;28;20220;-74
2022/09/16 00:12:55;;;;;;;3.23;1.70;;;16.00;99.90;;;;;;10397245;28;20213;-73
2022/09/16 00:17:56;;;;;;;4.53;2.00;;;15.90;99.90;;;;;;10400514;28;20208;-73
2022/09/16 00:22:56;;;;;;;6.17;2.17;;;16.00;99.90;;;;;;10389684;28;20217;-74
2022/09/16 00:27:57;;;;;;;2.67;1.60;;;15.90;99.90;;;;;;10397199;28;20275;-73
2022/09/16 00:32:57;;;;;;;2.83;1.70;;;15.90;99.90;;;;;;10398974;28;20220;-75
2022/09/16 00:37:58;;;;;;;5.50;1.60;;;15.80;99.90;;;;;;10389097;28;20271;-74
2022/09/16 00:42:59;;;;;;;5.03;1.77;;;15.80;99.90;;;;;;10387765;28;20213;-73
2022/09/16 00:48:06;;;;;;;4.17;1.87;;;15.80;99.90;;;;;;10388622;28;20228;-74
2022/09/16 00:53:11;;;;;;;3.60;1.63;;;15.80;99.90;;;;;;10400557;28;20339;-74
2022/09/16 00:58:15;;;;;;;2.70;1.70;;;15.80;99.90;;;;;;10397710;28;20236;-74
2022/09/16 01:03:16;;;;;;;5.30;2.70;;;15.80;99.90;;;;;;10395429;28;20240;-72
2022/09/16 01:08:17;;;;;;;3.97;1.60;;;15.80;99.90;;;;;;10397280;28;20225;-73
2022/09/16 01:13:18;;;;;;;4.47;1.60;;;15.70;99.90;;;;;;10399744;28;20607;-73
2022/09/16 01:18:30;;;;;;;7.60;1.90;;;15.70;99.90;;;;;;10387702;28;20747;-73
2022/09/16 01:23:49;;;;;;;4.50;1.50;;;15.70;99.90;;;;;;10385151;28;20691;-73
2022/09/16 01:29:03;;;;;;;2.40;1.60;;;15.60;99.90;;;;;;10408321;28;20212;-74
2022/09/16 01:34:41;;;;;;;9.20;1.83;;;15.60;99.90;;;;;;10404254;28;20221;-77
2022/09/16 01:39:52;;;;;;;3.40;1.40;;;15.60;99.90;;;;;;10410249;28;20236;-78
2022/09/16 01:45:09;;;;;;;6.20;1.97;;;15.50;99.90;;;;;;10397016;28;20216;-78
2022/09/16 01:50:31;;;;;;;4.40;1.53;;;15.50;99.90;;;;;;10388486;28;20216;-76
2022/09/16 01:55:40;;;;;;;3.53;1.40;;;15.50;99.90;;;;;;10401899;28;20216;-75
2022/09/16 02:00:44;;;;;;;4.77;1.53;;;15.50;99.90;;;;;;10396118;28;20221;-74
2022/09/16 02:05:50;;;;;;;4.20;1.83;;;15.40;99.90;;;;;;10392551;28;20259;-74
2022/09/16 02:10:57;;;;;;;6.93;2.03;;;15.40;99.90;;;;;;10393598;28;20223;-74
2022/09/16 02:16:03;;;;;;;5.63;1.40;;;15.40;99.90;;;;;;10398278;28;20223;-75
2022/09/16 02:21:06;;;;;;;4.00;1.50;;;15.40;99.90;;;;;;10392863;28;20216;-74
2022/09/16 02:26:10;;;;;;;3.43;1.10;;;15.30;99.90;;;;;;10392796;28;20311;-74
2022/09/16 02:31:13;;;;;;;3.27;1.50;;;15.30;99.90;;;;;;10386235;28;20270;-75
2022/09/16 02:36:19;;;;;;;4.00;1.40;;;15.30;99.90;;;;;;10393776;28;20315;-74
2022/09/16 02:41:23;;;;;;;3.17;1.30;;;15.30;99.90;;;;;;10399976;28;20288;-73
2022/09/16 02:46:42;;;;;;;5.27;1.20;;;15.20;99.90;;;;;;10396848;28;20216;-73
2022/09/16 02:51:46;;;;;;;5.23;1.43;;;15.30;99.90;;;;;;10397730;28;20221;-74
2022/09/16 02:56:50;;;;;;;6.07;1.30;;;15.20;99.90;;;;;;10401271;28;20238;-75
2022/09/16 03:01:50;;;;;;;6.50;1.70;;;15.20;99.90;;;;;;10400107;28;20212;-73
2022/09/16 03:06:51;;;;;;;5.07;1.37;;;15.20;99.90;;;;;;10399826;28;20221;-77
2022/09/16 03:12:33;;;;;;;3.00;1.40;;;15.10;99.90;;;;;;10399373;28;20221;-75
2022/09/16 03:17:57;;;;;;;9.00;1.80;;;15.00;99.90;;;;;;10407306;28;20712;-74
2022/09/16 03:23:18;;;;;;;4.63;1.73;;;15.00;99.90;;;;;;10399644;28;20234;-74
2022/09/16 03:28:24;;;;;;;5.17;1.50;;;14.90;99.90;;;;;;10406935;28;20593;-74
2022/09/16 03:33:36;;;;;;;6.77;2.03;;;14.90;99.90;;;;;;10415282;28;20238;-74
2022/09/16 03:38:38;;;;;;;4.13;1.43;;;14.80;99.90;;;;;;10400125;28;20279;-75
2022/09/16 03:43:39;;;;;;;4.33;1.63;;;14.80;99.90;;;;;;10396824;28;20224;-75
2022/09/16 03:48:39;;;;;;;3.00;1.60;;;14.70;99.90;;;;;;10392861;28;20591;-74
2022/09/16 03:53:40;;;;;;;5.87;1.73;;;14.70;99.90;;;;;;10396732;28;20247;-76
2022/09/16 03:58:41;;;;;;;4.00;1.43;;;14.60;99.90;;;;;;10392515;28;20233;-73
2022/09/16 04:03:41;;;;;;;4.10;1.73;;;14.60;99.90;;;;;;10397869;28;20700;-74
2022/09/16 04:08:43;;;;;;;4.30;1.57;;;14.60;99.90;;;;;;10396531;28;20303;-72
2022/09/16 04:13:44;;;;;;;5.47;1.70;;;14.60;99.90;;;;;;10391197;28;20328;-73
2022/09/16 04:18:45;;;;;;;4.80;1.60;;;14.50;99.90;;;;;;10399379;28;20712;-72
2022/09/16 04:23:45;;;;;;;3.33;1.23;;;14.50;99.90;;;;;;10405319;28;20352;-73
2022/09/16 04:28:46;;;;;;;7.60;1.43;;;14.50;99.90;;;;;;10396518;28;20227;-73
2022/09/16 04:33:47;;;;;;;5.27;1.53;;;14.50;99.90;;;;;;10396593;28;20213;-74
2022/09/16 04:38:48;;;;;;;4.77;1.33;;;14.50;99.90;;;;;;10403201;28;20232;-65
2022/09/16 04:43:57;;;;;;;3.30;1.50;;;14.50;99.90;;;;;;10388777;28;20305;-65
2022/09/16 04:48:59;;;;;;;2.43;1.50;;;14.50;99.90;;;;;;10388326;28;20272;-66
2022/09/16 04:54:00;;;;;;;4.73;1.43;;;14.50;99.90;;;;;;10395352;28;20249;-66
2022/09/16 04:59:03;;;;;;;5.10;2.00;;;14.60;99.90;;;;;;10388476;28;20255;-66
2022/09/16 05:04:06;;;;;;;2.73;1.90;;;14.60;99.90;;;;;;10394032;28;20224;-67
2022/09/16 05:09:08;;;;;;;5.83;1.97;;;14.60;99.90;;;;;;10388890;28;20225;-68
2022/09/16 05:14:14;;;;;;;4.50;1.53;;;14.60;99.90;;;;;;10392268;28;20220;-67
2022/09/16 05:19:16;;;;;;;4.97;1.30;;;14.60;99.90;;;;;;10399925;28;20228;-75
2022/09/16 05:24:16;;;;;;;7.87;2.00;;;14.70;99.90;;;;;;10397012;28;20208;-74
2022/09/16 05:29:17;;;;;;;5.40;2.23;;;14.80;99.90;;;;;;10393938;28;20223;-75
2022/09/16 05:34:20;;;;;;;5.37;2.07;;;14.80;99.90;;;;;;10392230;28;20228;-76
2022/09/16 05:39:22;;;;;;;6.03;2.13;;;14.70;99.90;;;;;;10398425;28;20236;-76
2022/09/16 05:44:23;;;;;;;3.97;1.57;;;14.80;99.90;;;;;;10398275;28;20805;-75
2022/09/16 05:49:24;;;;;;;4.73;2.20;;;14.90;99.90;;;;;;10388342;28;20235;-75
2022/09/16 05:54:25;;;;;;;6.47;2.10;;;14.90;99.90;;;;;;10387578;28;20258;-75
2022/09/16 05:59:25;;;;;;;4.23;1.80;;;15.00;99.90;;;;;;10391548;28;20224;-76
2022/09/16 06:04:26;;;;;;;7.57;2.07;;;15.10;99.90;;;;;;10391459;28;20223;-76
2022/09/16 06:09:29;;;;;;;9.23;1.87;;;15.30;99.90;;;;;;10391074;28;20256;-75
2022/09/16 06:14:30;;;;;;;5.00;2.20;;;15.50;99.90;;;;;;10399919;28;20703;-76
2022/09/16 06:19:30;;;;;;;5.47;2.30;;;15.70;99.90;;;;;;10397687;28;20225;-76
2022/09/16 06:24:31;;;;;;;4.70;2.00;;;15.80;99.90;;;;;;10405898;28;20535;-77
2022/09/16 06:29:31;;;;;;;6.30;2.23;;;16.20;99.90;;;;;;10399689;28;20346;-76
2022/09/16 06:34:32;;;;;;;4.77;1.87;;;16.60;99.90;;;;;;10397295;28;20303;-76
2022/09/16 06:39:32;;;;;;;2.63;1.60;;;17.10;99.90;;;;;;10415889;28;20225;-75
2022/09/16 06:44:33;;;;;;;4.30;1.87;;;17.60;99.90;;;;;;10403860;28;20218;-75
2022/09/16 06:49:34;;;;;;;4.43;2.07;;;18.10;99.90;;;;;;10399439;28;20269;-76
2022/09/16 06:54:34;;;;;;;1.67;1.30;;;18.70;99.90;;;;;;10392939;28;20223;-76
2022/09/16 06:59:35;;;;;;;7.33;1.50;;;18.80;99.90;;;;;;10393196;28;20227;-76
2022/09/16 07:04:36;;;;;;;8.07;1.80;;;18.60;99.90;;;;;;10395767;28;20242;-76
2022/09/16 07:09:37;;;;;;;4.17;1.50;;;18.30;99.90;;;;;;10413461;28;20214;-76
2022/09/16 07:14:40;;;;;;;6.33;1.30;;;18.10;99.90;;;;;;10395511;28;20310;-76
2022/09/16 07:19:41;;;;;;;4.20;1.40;;;17.90;99.90;;;;;;10415699;28;20214;-76
2022/09/16 07:24:41;;;;;;;4.27;1.40;;;17.80;99.90;;;;;;10394463;28;20214;-77
2022/09/16 07:29:42;;;;;;;2.53;1.13;;;18.10;99.90;;;;;;10402089;28;20218;-76
2022/09/16 07:34:46;;;;;;;6.20;2.50;;;18.60;99.90;;;;;;10396461;28;20271;-75
2022/09/16 07:39:46;;;;;;;3.53;1.30;;;18.40;99.90;;;;;;10383061;28;20226;-75
2022/09/16 07:44:47;;;;;;;4.67;1.40;;;18.30;99.90;;;;;;10400058;28;20580;-76
2022/09/16 07:49:54;;;;;;;4.30;1.70;;;18.30;99.90;;;;;;10406021;28;20223;-75
2022/09/16 07:54:55;;;;;;;5.30;2.27;;;18.30;99.90;;;;;;10400075;28;20224;-76
2022/09/16 07:59:56;;;;;;;4.23;1.60;;;18.00;99.90;;;;;;10391112;28;20226;-76
2022/09/16 08:04:57;;;;;;;4.20;1.50;;;18.00;99.90;;;;;;10398189;28;20214;-76
2022/09/16 08:09:57;;;;;;;7.47;1.33;;;18.40;99.90;;;;;;10399139;28;20748;-76
2022/09/16 08:14:59;;;;;;;5.83;1.60;;;18.70;99.90;;;;;;10398642;28;20230;-76
2022/09/16 08:19:59;;;;;;;10.93;1.83;;;18.90;99.90;;;;;;10350491;28;20227;-77
2022/09/16 08:25:00;;;;;;;4.43;1.60;;;18.90;99.90;;;;;;10408168;28;20720;-76
2022/09/16 08:30:01;;;;;;;5.33;1.50;;;19.40;99.90;;;;;;10398452;28;20310;-74
2022/09/16 08:35:02;;;;;;;2.80;1.33;;;20.10;99.90;;;;;;10397550;28;20239;-74
2022/09/16 08:40:04;;;;;;;6.73;1.27;;;21.60;99.90;;;;;;10390982;28;20279;-77
2022/09/16 08:45:19;;;;;;;2.03;1.00;;;25.40;91.20;;;;;;10404579;28;20285;-76
2022/09/16 08:50:47;;;;;;;3.77;1.40;;;29.40;61.40;;;;;;10401493;28;20243;-75
2022/09/16 08:55:50;;;;;;;4.53;1.57;;;32.10;49.30;;;;;;10394794;28;20730;-76
2022/09/16 09:01:02;;;;;;;5.00;1.80;;;32.70;44.20;;;;;;10396312;28;20212;-75
2022/09/16 09:06:14;;;;;;;7.60;1.57;;;28.70;48.30;;;;;;10389582;28;20354;-75
2022/09/16 09:11:42;;;;;;;5.17;1.50;;;25.80;53.60;;;;;;10394070;28;20228;-75
2022/09/16 09:17:06;;;;;;;2.27;1.50;;;25.10;57.10;;;;;;10411097;28;20229;-75
2022/09/16 09:22:26;;;;;;;4.70;1.20;;;24.70;58.80;;;;;;10396598;28;20218;-75
2022/09/16 09:27:57;;;;;;;3.07;1.07;;;25.90;53.60;;;;;;10398807;28;20596;-76
2022/09/16 09:33:06;;;;;;;4.90;1.87;;;27.40;49.30;;;;;;10400708;28;20222;-76
2022/09/16 09:38:32;;;;;;;3.60;1.23;;;27.10;48.00;;;;;;10389526;28;20789;-76
2022/09/16 09:43:57;;;;;;;6.27;1.50;;;26.90;49.90;;;;;;10391276;28;20219;-76
2022/09/16 09:49:25;;;;;;;4.03;1.40;;;30.00;45.00;;;;;;10387458;28;20217;-76
2022/09/16 09:54:30;;;;;;;4.97;1.37;;;32.00;41.50;;;;;;10402328;28;20315;-76
2022/09/16 09:59:38;;;;;;;3.27;1.10;;;34.50;37.00;;;;;;10390316;28;20255;-76
2022/09/16 10:04:38;;;;;;;1.77;1.00;;;34.00;35.80;;;;;;10402098;28;20227;-75
2022/09/16 10:10:13;;;;;;;5.20;1.03;;;32.00;37.20;;;;;;10389174;28;20221;-76
2022/09/16 10:15:28;;;;;;;7.80;1.50;;;27.90;42.40;;;;;;10385306;28;20226;-75
2022/09/16 10:20:38;;;;;;;5.87;1.13;;;25.00;49.70;;;;;;10395958;28;20779;-76
2022/09/16 10:25:40;;;;;;;4.27;1.43;;;23.80;53.80;;;;;;10387814;28;20612;-76
2022/09/16 10:30:56;;;;;;;8.93;1.47;;;22.90;56.00;;;;;;10393627;28;20219;-76
2022/09/16 10:36:01;;;;;;;6.27;1.17;;;22.80;56.90;;;;;;10394782;28;20722;-75
2022/09/16 10:41:16;;;;;;;4.57;1.20;;;26.40;51.10;;;;;;10387623;28;20207;-76
2022/09/16 10:46:18;;;;;;;2.20;1.10;;;30.10;41.80;;;;;;10394337;28;20218;-76
2022/09/16 10:51:29;;;;;;;2.50;0.90;;;27.70;43.60;;;;;;10400561;28;20225;-76
2022/09/16 10:56:45;;;;;;;7.83;2.57;;;24.60;50.00;;;;;;10386481;28;20251;-78
2022/09/16 11:02:28;;;;;;;2.37;1.10;;;22.60;55.60;;;;;;10387552;28;20221;-75
2022/09/16 11:07:34;;;;;;;3.80;1.10;;;21.50;57.70;;;;;;10381768;28;20254;-76
2022/09/16 11:13:16;;;;;;;2.47;0.90;;;21.10;59.90;;;;;;10398026;28;20228;-75
2022/09/16 11:18:22;;;;;;;4.13;1.20;;;21.20;59.70;;;;;;10397794;28;20262;-75
2022/09/16 11:23:49;;;;;;;3.97;1.33;;;21.50;58.90;;;;;;10395482;28;20696;-75
2022/09/16 11:29:02;;;;;;;1.57;0.90;;;21.60;59.40;;;;;;10400590;28;20225;-76
2022/09/16 11:34:21;;;;;;;4.03;1.40;;;22.00;57.90;;;;;;10408570;28;20254;-75
2022/09/16 11:39:46;;;;;;;5.57;1.13;;;22.40;58.10;;;;;;10396736;28;20577;-76
2022/09/16 11:45:00;;;;;;;4.93;1.03;;;22.70;58.10;;;;;;10402314;28;20913;-76
2022/09/16 11:50:14;;;;;;;3.67;1.10;;;22.90;57.40;;;;;;10392626;28;20227;-77
2022/09/16 11:55:15;;;;;;;4.60;1.00;;;22.70;57.70;;;;;;10407347;28;20717;-76
2022/09/16 12:00:18;;;;;;;2.90;0.70;;;22.70;57.60;;;;;;10399460;28;20221;-76
2022/09/16 12:05:32;;;;;;;3.13;0.97;;;22.60;57.80;;;;;;10395790;28;20184;-76
2022/09/16 12:10:44;;;;;;;3.43;0.90;;;22.70;57.80;;;;;;10398927;28;20228;-75
2022/09/16 12:16:13;;;;;;;4.37;1.57;;;22.70;57.80;;;;;;10391734;28;20323;-76
2022/09/16 12:21:34;;;;;;;2.30;1.40;;;22.40;59.20;;;;;;10398508;28;20227;-76
2022/09/16 12:27:02;;;;;;;4.20;1.00;;;21.80;60.00;;;;;;10394825;28;20231;-76
2022/09/16 12:32:05;;;;;;;2.87;1.17;;;21.60;61.60;;;;;;10391033;28;20235;-76
2022/09/16 12:37:09;;;;;;;3.83;1.17;;;21.60;60.90;;;;;;10396536;28;20597;-75
2022/09/16 12:42:31;;;;;;;4.60;1.30;;;21.50;67.40;;;;;;10390991;28;20225;-75
2022/09/16 12:47:57;;;;;;;4.20;1.37;;;20.90;74.20;;;;;;10389306;28;20225;-74
2022/09/16 12:53:09;;;;;;;1.67;0.80;;;20.70;77.70;;;;;;10405021;28;20362;-76
2022/09/16 12:58:33;;;;;;;2.40;0.90;;;20.70;75.90;;;;;;10409869;28;20227;-77
2022/09/16 13:03:38;;;;;;;1.43;0.80;;;20.70;75.90;;;;;;10391675;28;20227;-75
2022/09/16 13:08:38;;;;;;;4.23;0.63;;;20.40;72.30;;;;;;10404175;28;20304;-76
2022/09/16 13:13:47;;;;;;;2.17;0.60;;;19.90;71.10;;;;;;10396441;28;20316;-75
2022/09/16 13:19:21;;;;;;;1.50;0.50;;;19.70;73.20;;;;;;10393476;28;20236;-76
2022/09/16 13:24:44;;;;;;;2.40;0.70;;;19.70;74.00;;;;;;10393929;28;20222;-76
2022/09/16 13:29:45;;;;;;;0.63;0.60;;;20.20;72.80;;;;;;10396145;28;20225;-76
2022/09/16 13:34:45;;;;;;;1.30;0.80;;;20.30;69.30;;;;;;10404129;28;20215;-76
2022/09/16 13:39:46;;;;;;;2.10;0.60;;;20.30;70.40;;;;;;10393940;28;20299;-76
2022/09/16 13:44:47;;;;;;;2.90;0.70;;;20.20;72.00;;;;;;10387906;28;20251;-75
2022/09/16 13:49:59;;;;;;;0.67;0.53;;;20.00;73.50;;;;;;10386360;28;20949;-77
2022/09/16 13:55:04;;;;;;;1.17;0.63;;;19.90;72.00;;;;;;10396383;28;20222;-74
2022/09/16 14:00:20;;;;;;;4.17;0.80;;;19.70;74.90;;;;;;10393807;28;20298;-76
2022/09/16 14:05:30;;;;;;;4.33;0.93;;;19.60;76.40;;;;;;10390329;28;20550;-76
2022/09/16 14:10:56;;;;;;;1.87;0.50;;;19.40;78.00;;;;;;10406516;28;20241;-75
2022/09/16 14:16:00;;;;;;;1.17;0.60;;;19.40;80.00;;;;;;10386219;28;20225;-76
2022/09/16 14:21:19;;;;;;;1.83;0.60;;;19.70;81.60;;;;;;10400664;28;20272;-76
2022/09/16 14:26:23;;;;;;;1.03;0.40;;;19.90;76.90;;;;;;10389625;28;20222;-77
2022/09/16 14:31:28;;;;;;;0.43;0.30;;;19.80;75.60;;;;;;10393556;28;20235;-76
2022/09/16 14:36:36;;;;;;;1.17;0.40;;;19.50;76.40;;;;;;10389828;28;20235;-75
2022/09/16 14:41:52;;;;;;;0.53;0.33;;;19.40;78.20;;;;;;10390339;28;20249;-75
2022/09/16 14:47:04;;;;;;;2.10;0.50;;;19.10;78.80;;;;;;10396421;28;20662;-76
2022/09/16 14:52:19;;;;;;;0.90;0.50;;;18.80;81.00;;;;;;10395265;28;20236;-76
2022/09/16 14:57:25;;;;;;;0.47;0.30;;;18.70;82.80;;;;;;10415390;28;20225;-76
2022/09/16 15:02:43;;;;;;;0.63;0.40;;;18.90;83.00;;;;;;10396312;28;20223;-75
2022/09/16 15:07:44;;;;;;;1.30;0.47;;;19.10;82.20;;;;;;10401660;28;20221;-76
2022/09/16 15:12:49;;;;;;;1.63;0.60;;;19.20;84.80;;;;;;10406234;28;20989;-75
2022/09/16 15:17:57;;;;;;;1.40;0.37;;;19.00;87.50;;;;;;10400520;28;20235;-75
2022/09/16 15:22:58;;;;;;;1.63;0.50;;;18.60;89.60;;;;;;10392091;28;20270;-75
2022/09/16 15:28:07;;;;;;;2.20;0.50;;;18.40;90.90;;;;;;10403371;28;20219;-75
2022/09/16 15:33:23;;;;;;;1.33;0.70;;;18.20;92.00;;;;;;10399290;28;20270;-76
2022/09/16 15:38:24;;;;;;;0.63;0.40;;;17.90;93.00;;;;;;10407984;28;20236;-76
2022/09/16 15:43:34;;;;;;;0.40;0.30;;;17.80;94.20;;;;;;10399825;28;20224;-76
2022/09/16 15:48:41;;;;;;;1.07;0.47;;;17.70;94.80;;;;;;10391752;28;20309;-76
2022/09/16 15:53:45;;;;;;;0.80;0.40;;;17.70;94.30;;;;;;10397395;28;20254;-76
2022/09/16 15:58:47;;;;;;;3.97;1.67;;;17.60;92.10;;;;;;10395043;28;20225;-77
2022/09/16 16:04:01;;;;;;;1.27;0.50;;;17.40;91.60;;;;;;10408882;28;20212;-78
2022/09/16 16:09:02;;;;;;;0.87;0.30;;;17.10;91.10;;;;;;10392229;28;20228;-76
2022/09/16 16:14:03;;;;;;;1.30;0.30;;;16.90;91.30;;;;;;10398153;28;20224;-76
2022/09/16 16:19:09;;;;;;;0.77;0.40;;;16.70;92.10;;;;;;10392040;28;20320;-76
2022/09/16 16:24:14;;;;;;;0.30;0.20;;;16.30;94.10;;;;;;10396842;28;20698;-75
2022/09/16 16:29:14;;;;;;;0.67;0.60;;;16.00;95.00;;;;;;10400084;28;20224;-76
2022/09/16 16:34:15;;;;;;;0.80;0.40;;;15.90;96.10;;;;;;10403002;28;20599;-76
2022/09/16 16:39:15;;;;;;;1.70;0.43;;;15.90;97.00;;;;;;10392623;28;20311;-75
2022/09/16 16:44:21;;;;;;;1.23;0.60;;;15.90;96.90;;;;;;10402202;28;20281;-75
2022/09/16 16:49:23;;;;;;;1.37;0.37;;;15.70;98.10;;;;;;10391680;28;20224;-75
2022/09/16 16:54:24;;;;;;;1.60;0.33;;;15.50;98.70;;;;;;10397009;28;20260;-76
2022/09/16 16:59:25;;;;;;;0.40;0.40;;;15.30;99.70;;;;;;10397817;28;20278;-76
2022/09/16 17:04:29;;;;;;;1.13;0.70;;;15.10;99.90;;;;;;10407327;28;20240;-76
2022/09/16 17:09:30;;;;;;;1.03;0.70;;;15.00;99.90;;;;;;10392605;28;20263;-76
2022/09/16 17:14:32;;;;;;;2.10;0.70;;;14.90;99.90;;;;;;10393885;28;20247;-75
2022/09/16 17:19:32;;;;;;;1.87;0.80;;;14.80;99.90;;;;;;10410392;28;20282;-75
2022/09/16 17:24:33;;;;;;;2.13;1.20;;;14.50;99.90;;;;;;10391570;28;20222;-76
2022/09/16 17:29:34;;;;;;;3.10;0.70;;;14.30;99.90;;;;;;10414697;28;20259;-76
2022/09/16 17:34:34;;;;;;;2.50;0.80;;;14.20;99.90;;;;;;10394445;28;20225;-77
2022/09/16 17:39:36;;;;;;;0.50;0.50;;;14.10;99.90;;;;;;10405444;28;20293;-76
2022/09/16 17:44:37;;;;;;;1.27;0.63;;;14.00;99.90;;;;;;10390753;28;20221;-76
2022/09/16 17:49:39;;;;;;;1.77;0.90;;;13.90;99.90;;;;;;10393281;28;20233;-76
2022/09/16 17:54:40;;;;;;;2.30;0.87;;;13.80;99.90;;;;;;10387742;28;20224;-76
2022/09/16 17:59:41;;;;;;;3.13;1.50;;;13.60;99.90;;;;;;10385730;28;20237;-76
2022/09/16 18:04:42;;;;;;;2.50;0.80;;;13.50;99.90;;;;;;10416091;28;20217;-77
2022/09/16 18:09:42;;;;;;;1.57;1.00;;;13.50;99.90;;;;;;10387412;28;20290;-76
2022/09/16 18:14:43;;;;;;;1.27;0.90;;;13.50;99.90;;;;;;10391632;28;20220;-77
2022/09/16 18:19:44;;;;;;;1.13;0.90;;;13.40;99.90;;;;;;10388815;28;20605;-78
2022/09/16 18:24:45;;;;;;;5.63;0.90;;;13.20;99.90;;;;;;10401556;28;20216;-76
2022/09/16 18:29:47;;;;;;;2.60;0.93;;;13.20;99.90;;;;;;10403346;28;20564;-77
2022/09/16 18:34:47;;;;;;;1.97;1.20;;;13.10;99.90;;;;;;10401478;28;20219;-76
2022/09/16 18:39:48;;;;;;;2.80;1.03;;;13.10;99.90;;;;;;10394728;28;20432;-77
2022/09/16 18:44:49;;;;;;;3.60;1.67;;;13.00;99.90;;;;;;10396007;28;20221;-76
2022/09/16 18:49:49;;;;;;;3.60;1.10;;;12.90;99.90;;;;;;10408625;28;20310;-76
2022/09/16 18:54:50;;;;;;;1.83;0.90;;;12.80;99.90;;;;;;10412960;28;20222;-76
2022/09/16 18:59:50;;;;;;;1.73;1.10;;;12.80;99.90;;;;;;10401830;28;20229;-75
2022/09/16 19:04:51;;;;;;;3.17;1.10;;;12.70;99.90;;;;;;10393694;28;20313;-75
2022/09/16 19:09:58;;;;;;;2.90;1.17;;;12.70;99.90;;;;;;10407845;28;20251;-76
2022/09/16 19:14:58;;;;;;;4.03;0.80;;;12.70;99.90;;;;;;10402623;28;20646;-77
2022/09/16 19:19:59;;;;;;;1.83;0.90;;;12.60;99.90;;;;;;10401251;28;20213;-75
2022/09/16 19:25:00;;;;;;;1.60;0.80;;;12.50;99.90;;;;;;10400251;28;20217;-75
2022/09/16 19:30:04;;;;;;;2.00;1.00;;;12.40;99.90;;;;;;10399771;28;20232;-75
2022/09/16 19:35:05;;;;;;;1.63;1.10;;;12.30;99.90;;;;;;10397314;28;20251;-75
2022/09/16 19:40:05;;;;;;;2.07;1.30;;;12.30;99.90;;;;;;10419376;28;20295;-76
2022/09/16 19:45:06;;;;;;;3.20;1.40;;;12.30;99.90;;;;;;10392334;28;20248;-76
2022/09/16 19:50:07;;;;;;;2.63;1.23;;;12.20;99.90;;;;;;10398272;28;20184;-79
2022/09/16 19:55:08;;;;;;;1.50;0.90;;;12.20;99.90;;;;;;10392733;28;20181;-77
2022/09/16 20:00:13;;;;;;;1.70;1.00;;;12.10;99.90;;;;;;10398225;28;20227;-75
2022/09/16 20:05:14;;;;;;;1.43;1.10;;;12.00;99.90;;;;;;10403952;28;20184;-76
2022/09/16 20:10:15;;;;;;;3.03;1.30;;;11.90;99.90;;;;;;10396477;28;20196;-76
2022/09/16 20:15:15;;;;;;;1.53;1.03;;;11.90;99.90;;;;;;10392522;28;20656;-76
2022/09/16 20:20:17;;;;;;;2.83;1.27;;;11.90;99.90;;;;;;10403203;28;20216;-76
2022/09/16 20:25:20;;;;;;;1.17;0.80;;;11.90;99.90;;;;;;10392476;28;20211;-76
2022/09/16 20:30:21;;;;;;;2.67;0.90;;;11.90;99.90;;;;;;10394761;28;20197;-76
2022/09/16 20:35:21;;;;;;;2.83;1.13;;;11.80;99.90;;;;;;10392796;28;20195;-76
2022/09/16 20:40:22;;;;;;;2.07;1.40;;;11.80;99.90;;;;;;10396384;28;20225;-76
2022/09/16 20:45:23;;;;;;;0.80;0.80;;;11.80;99.90;;;;;;10393135;28;20197;-77
2022/09/16 20:50:23;;;;;;;3.13;1.10;;;11.70;99.90;;;;;;10392383;28;20223;-75
2022/09/16 20:55:25;;;;;;;2.87;1.00;;;11.70;99.90;;;;;;10393682;28;20221;-75
2022/09/16 21:00:25;;;;;;;1.17;0.80;;;11.60;99.90;;;;;;10399773;28;20312;-77
2022/09/16 21:05:26;;;;;;;2.60;0.90;;;11.50;99.90;;;;;;10392171;28;20311;-77
2022/09/16 21:10:26;;;;;;;0.93;0.90;;;11.50;99.90;;;;;;10399103;28;20733;-77
2022/09/16 21:15:28;;;;;;;2.43;1.00;;;11.60;99.90;;;;;;10384139;28;20728;-77
2022/09/16 21:20:29;;;;;;;1.70;0.70;;;11.60;99.90;;;;;;10408261;28;20236;-78
2022/09/16 21:25:31;;;;;;;1.80;0.93;;;11.60;99.90;;;;;;10397813;28;20219;-78
2022/09/16 21:30:32;;;;;;;1.90;0.67;;;11.60;99.90;;;;;;10395694;28;20220;-76
2022/09/16 21:35:32;;;;;;;0.73;0.60;;;11.50;99.90;;;;;;10414075;28;20220;-79
2022/09/16 21:40:36;;;;;;;0.80;0.70;;;11.50;99.90;;;;;;10397795;28;20236;-78
2022/09/16 21:45:43;;;;;;;2.73;1.03;;;11.40;99.90;;;;;;10391648;28;20228;-78
2022/09/16 21:50:44;;;;;;;2.77;1.57;;;11.40;99.90;;;;;;10404001;28;20220;-77
2022/09/16 21:55:46;;;;;;;1.60;0.70;;;11.30;99.90;;;;;;10388595;28;20327;-77
2022/09/16 22:00:47;;;;;;;1.00;0.70;;;11.30;99.90;;;;;;10401886;28;20224;-78
2022/09/16 22:05:47;;;;;;;4.53;1.10;;;11.20;99.90;;;;;;10399904;28;20212;-78
2022/09/16 22:10:48;;;;;;;1.33;0.70;;;11.10;99.90;;;;;;10390179;28;20217;-78
2022/09/16 22:15:51;;;;;;;2.03;1.53;;;11.00;99.90;;;;;;10402193;28;20232;-75
2022/09/16 22:20:52;;;;;;;1.20;0.90;;;11.00;99.90;;;;;;10393982;28;20225;-76
2022/09/16 22:25:53;;;;;;;2.00;0.80;;;10.90;99.90;;;;;;10394091;28;20304;-77
2022/09/16 22:31:14;;;;;;;5.03;0.90;;;10.80;99.90;;;;;;10386551;28;20693;-76
2022/09/16 22:36:20;;;;;;;1.77;0.73;;;10.80;99.90;;;;;;10388376;28;20231;-76
2022/09/16 22:41:22;;;;;;;4.17;0.93;;;10.70;99.90;;;;;;10398516;28;20807;-76
2022/09/16 22:46:25;;;;;;;1.80;0.83;;;10.70;99.90;;;;;;10389592;28;20351;-77
2022/09/16 22:51:27;;;;;;;1.43;0.70;;;10.50;99.90;;;;;;10390424;28;20680;-77
2022/09/16 22:56:32;;;;;;;1.67;0.90;;;10.50;99.90;;;;;;10389867;28;20224;-76
2022/09/16 23:01:36;;;;;;;1.37;0.90;;;10.40;99.90;;;;;;10388896;28;20228;-76
2022/09/16 23:06:38;;;;;;;1.93;0.63;;;10.40;99.90;;;;;;10409632;28;20339;-76
2022/09/16 23:11:39;;;;;;;2.77;0.90;;;10.30;99.90;;;;;;10398603;28;20216;-77
2022/09/16 23:16:39;;;;;;;1.53;0.97;;;10.30;99.90;;;;;;10401958;28;20233;-77
2022/09/16 23:21:40;;;;;;;2.47;1.00;;;10.30;99.90;;;;;;10403406;28;20710;-76
2022/09/16 23:26:41;;;;;;;2.03;0.90;;;10.20;99.90;;;;;;10405341;28;20220;-77
2022/09/16 23:31:43;;;;;;;1.43;1.00;;;10.20;99.90;;;;;;10394297;28;20225;-75
2022/09/16 23:36:44;;;;;;;3.70;1.00;;;10.20;99.90;;;;;;10400508;28;20323;-76
2022/09/16 23:41:45;;;;;;;2.30;1.07;;;10.20;99.90;;;;;;10398180;28;20753;-76
2022/09/16 23:46:46;;;;;;;4.00;0.80;;;10.20;99.90;;;;;;10426419;28;20224;-76
2022/09/16 23:51:46;;;;;;;1.97;0.90;;;10.10;99.90;;;;;;10402468;28;20224;-76
2022/09/16 23:56:50;;;;;;;2.47;1.00;;;10.10;99.90;;;;;;10398183;28;20252;-77
